createdAt,value
2023-10-01T00:01:04.736Z,99378.66
2023-10-01T00:03:32.393Z,99376.06
2023-10-01T00:05:59.733Z,99376.91
2023-10-01T00:08:27.078Z,99374.34
2023-10-01T00:10:54.631Z,99377.78
2023-10-01T00:13:22.121Z,99369.97
2023-10-01T00:15:50.712Z,99375.19
2023-10-01T00:18:18.554Z,99370.81
2023-10-01T00:20:47.863Z,99365.63
2023-10-01T00:23:15.140Z,99363.88
2023-10-01T00:25:44.932Z,99356.97
2023-10-01T00:28:12.503Z,99362.16
2023-10-01T00:30:39.831Z,99352.63
2023-10-01T00:33:08.947Z,99350.03
2023-10-01T00:35:40.891Z,99347.41
2023-10-01T00:38:11.866Z,99349.16
2023-10-01T00:40:43.239Z,99349.13
2023-10-01T00:43:10.636Z,99351.72
2023-10-01T00:45:38.965Z,99348.22
2023-10-01T00:48:08.285Z,99341.31
2023-10-01T00:50:36.521Z,99343.06
2023-10-01T00:53:06.803Z,99349.09
2023-10-01T00:55:34.262Z,99339.56
2023-10-01T00:58:01.704Z,99342.19
2023-10-01T01:00:29.133Z,99334.38
2023-10-01T01:03:06.425Z,99328.28
2023-10-01T01:05:37.766Z,99329.16
2023-10-01T01:08:08.498Z,99330.88
2023-10-01T01:10:42.633Z,99329.13
2023-10-01T01:13:18.318Z,99325.66
2023-10-01T01:15:47.863Z,99330.88
2023-10-01T01:18:15.688Z,99341.19
2023-10-01T01:20:46.799Z,99340.25
2023-10-01T01:23:18.320Z,99341.91
2023-10-01T01:25:53.442Z,99337.59
2023-10-01T01:28:32.706Z,99339.28
2023-10-01T01:31:02.114Z,99331.50
2023-10-01T01:33:42.117Z,99336.69
2023-10-01T01:36:18.543Z,99341.00
2023-10-01T01:39:11.873Z,99334.09
2023-10-01T01:41:49.628Z,99329.72
2023-10-01T01:44:18.103Z,99340.09
2023-10-01T01:46:51.756Z,99329.69
2023-10-01T01:49:20.316Z,99328.84
2023-10-01T01:52:01.367Z,99330.53
2023-10-01T01:54:31.154Z,99330.50
2023-10-01T01:56:59.247Z,99324.50
2023-10-01T01:59:29.330Z,99319.31
2023-10-01T02:01:57.219Z,99316.66
2023-10-01T02:04:25.018Z,99308.06
2023-10-01T02:06:52.578Z,99309.75
2023-10-01T02:09:26.671Z,99307.13
2023-10-01T02:11:55.222Z,99304.53
2023-10-01T02:14:31.896Z,99295.94
2023-10-01T02:17:07.168Z,99298.47
2023-10-01T02:19:36.486Z,99306.28
2023-10-01T02:22:07.250Z,99301.06
2023-10-01T02:24:55.879Z,99294.13
2023-10-01T02:27:27.408Z,99298.38
2023-10-01T02:30:13.427Z,99291.47
2023-10-01T02:32:51.143Z,99294.97
2023-10-01T02:35:37.075Z,99292.28
2023-10-01T02:38:08.650Z,99288.84
2023-10-01T02:40:39.266Z,99285.34
2023-10-01T02:43:09.909Z,99286.22
2023-10-01T02:45:42.922Z,99285.34
2023-10-01T02:48:19.533Z,99281.91
2023-10-01T02:50:51.184Z,99285.31
2023-10-01T02:53:22.978Z,99287.91
2023-10-01T02:55:54.151Z,99283.59
2023-10-01T02:58:26.573Z,99285.38
2023-10-01T03:00:54.836Z,99285.38
2023-10-01T03:03:34.308Z,99281.91
2023-10-01T03:06:10.491Z,99286.19
2023-10-01T03:08:47.919Z,99293.91
2023-10-01T03:11:24.194Z,99284.44
2023-10-01T03:13:55.416Z,99277.53
2023-10-01T03:16:43.761Z,99270.63
2023-10-01T03:19:18.434Z,99267.19
2023-10-01T03:22:04.916Z,99275.78
2023-10-01T03:24:34.318Z,99267.09
2023-10-01T03:27:20.142Z,99266.25
2023-10-01T03:29:50.040Z,99259.34
2023-10-01T03:32:37.709Z,99260.16
2023-10-01T03:35:09.191Z,99258.44
2023-10-01T03:37:40.260Z,99255.91
2023-10-01T03:40:22.467Z,99250.78
2023-10-01T03:42:53.133Z,99245.56
2023-10-01T03:45:40.136Z,99245.59
2023-10-01T03:48:20.527Z,99249.00
2023-10-01T03:50:48.322Z,99243.88
2023-10-01T03:53:19.494Z,99243.06
2023-10-01T03:55:48.318Z,99245.63
2023-10-01T03:58:27.602Z,99253.47
2023-10-01T04:00:55.824Z,99255.16
2023-10-01T04:03:23.150Z,99254.28
2023-10-01T04:05:58.265Z,99252.56
2023-10-01T04:08:26.424Z,99250.81
2023-10-01T04:10:59.673Z,99255.16
2023-10-01T04:13:29.641Z,99256.91
2023-10-01T04:15:57.816Z,99255.19
2023-10-01T04:18:29.814Z,99252.59
2023-10-01T04:20:58.520Z,99246.59
2023-10-01T04:23:32.645Z,99253.50
2023-10-01T04:26:07.525Z,99249.19
2023-10-01T04:28:45.555Z,99253.59
2023-10-01T04:31:16.686Z,99249.31
2023-10-01T04:33:45.056Z,99249.38
2023-10-01T04:36:14.882Z,99249.44
2023-10-01T04:38:45.221Z,99245.13
2023-10-01T04:41:17.548Z,99255.53
2023-10-01T04:43:57.230Z,99247.81
2023-10-01T04:46:32.433Z,99249.59
2023-10-01T04:49:15.655Z,99240.94
2023-10-01T04:51:49.254Z,99248.75
2023-10-01T04:54:19.414Z,99249.63
2023-10-01T04:56:49.495Z,99248.75
2023-10-01T04:59:17.384Z,99253.94
2023-10-01T05:01:44.850Z,99253.13
2023-10-01T05:04:16.365Z,99253.09
2023-10-01T05:06:44.754Z,99250.50
2023-10-01T05:09:16.052Z,99253.06
2023-10-01T05:11:46.065Z,99252.22
2023-10-01T05:14:13.651Z,99248.72
2023-10-01T05:16:41.075Z,99258.22
2023-10-01T05:19:12.153Z,99247.81
2023-10-01T05:21:49.639Z,99247.75
2023-10-01T05:24:32.585Z,99245.16
2023-10-01T05:27:04.059Z,99249.44
2023-10-01T05:29:32.648Z,99249.41
2023-10-01T05:32:00.595Z,99254.56
2023-10-01T05:34:30.062Z,99256.31
2023-10-01T05:37:10.133Z,99258.03
2023-10-01T05:42:27.502Z,99254.53
2023-10-01T05:44:56.325Z,99260.59
2023-10-01T05:47:24.239Z,99264.03
2023-10-01T05:49:54.937Z,99263.16
2023-10-01T05:52:22.661Z,99257.97
2023-10-01T05:54:53.850Z,99258.81
2023-10-01T05:57:22.611Z,99261.41
2023-10-01T05:59:58.007Z,99258.81
2023-10-01T06:02:46.700Z,99257.97
2023-10-01T06:05:34.727Z,99258.78
2023-10-01T06:08:16.331Z,99257.91
2023-10-01T06:11:10.404Z,99251.88
2023-10-01T06:13:39.401Z,99256.16
2023-10-01T06:16:16.407Z,99260.47
2023-10-01T06:18:51.638Z,99261.31
2023-10-01T06:21:19.514Z,99269.06
2023-10-01T06:23:52.871Z,99263.91
2023-10-01T06:26:21.350Z,99281.16
2023-10-01T06:28:49.302Z,99288.88
2023-10-01T06:31:22.219Z,99269.84
2023-10-01T06:33:55.101Z,99287.06
2023-10-01T06:36:22.961Z,99285.25
2023-10-01T06:38:55.282Z,99293.84
2023-10-01T06:41:30.255Z,99288.56
2023-10-01T06:43:57.805Z,99296.28
2023-10-01T06:46:28.954Z,99298.84
2023-10-01T06:49:00.329Z,99291.94
2023-10-01T06:51:28.402Z,99299.72
2023-10-01T06:54:06.645Z,99312.72
2023-10-01T06:56:37.668Z,99305.00
2023-10-01T06:59:05.906Z,99313.63
2023-10-01T07:01:37.067Z,99308.50
2023-10-01T07:04:07.248Z,99313.69
2023-10-01T07:06:37.612Z,99316.28
2023-10-01T07:09:07.624Z,99313.69
2023-10-01T07:11:35.013Z,99312.81
2023-10-01T07:14:03.496Z,99311.97
2023-10-01T07:16:37.748Z,99322.31
2023-10-01T07:19:05.959Z,99323.16
2023-10-01T07:21:36.313Z,99324.91
2023-10-01T07:24:05.456Z,99326.63
2023-10-01T07:26:34.527Z,99323.94
2023-10-01T07:29:02.718Z,99329.09
2023-10-01T07:31:37.102Z,99332.53
2023-10-01T07:34:14.817Z,99333.38
2023-10-01T07:36:45.246Z,99335.94
2023-10-01T07:39:16.987Z,99335.09
2023-10-01T07:41:45.824Z,99341.94
2023-10-01T07:44:13.843Z,99342.81
2023-10-01T07:46:42.235Z,99345.38
2023-10-01T07:49:12.880Z,99352.28
2023-10-01T07:51:40.362Z,99347.09
2023-10-01T07:54:13.969Z,99355.72
2023-10-01T07:56:49.627Z,99354.00
2023-10-01T07:59:36.235Z,99362.63
2023-10-01T08:02:19.859Z,99356.59
2023-10-01T08:04:48.672Z,99365.22
2023-10-01T08:07:17.239Z,99366.03
2023-10-01T08:09:52.855Z,99363.44
2023-10-01T08:12:21.369Z,99354.00
2023-10-01T08:15:09.060Z,99358.38
2023-10-01T08:17:36.746Z,99369.75
2023-10-01T08:20:19.009Z,99366.44
2023-10-01T08:23:06.366Z,99370.94
2023-10-01T08:25:34.368Z,99371.03
2023-10-01T08:28:22.401Z,99376.28
2023-10-01T08:30:50.876Z,99379.75
2023-10-01T08:33:23.450Z,99381.41
2023-10-01T08:36:07.260Z,99378.00
2023-10-01T08:38:38.473Z,99380.59
2023-10-01T08:41:07.075Z,99376.34
2023-10-01T08:43:38.475Z,99372.06
2023-10-01T08:46:18.866Z,99379.03
2023-10-01T08:48:47.214Z,99371.31
2023-10-01T08:51:17.647Z,99373.06
2023-10-01T08:53:48.065Z,99363.59
2023-10-01T08:56:15.555Z,99369.69
2023-10-01T08:58:51.800Z,99375.75
2023-10-01T09:01:22.270Z,99383.53
2023-10-01T09:03:50.681Z,99379.19
2023-10-01T09:06:32.454Z,99389.63
2023-10-01T09:09:20.666Z,99387.94
2023-10-01T09:11:52.232Z,99391.47
2023-10-01T09:14:37.314Z,99388.94
2023-10-01T09:17:26.234Z,99383.81
2023-10-01T09:19:55.080Z,99385.66
2023-10-01T09:22:34.413Z,99389.97
2023-10-01T09:25:17.975Z,99394.25
2023-10-01T09:28:31.111Z,99384.34
2023-10-01T09:31:03.385Z,99391.06
2023-10-01T09:33:32.900Z,99394.50
2023-10-01T09:36:01.012Z,99389.97
2023-10-01T09:38:31.591Z,99382.84
2023-10-01T09:41:01.463Z,99391.25
2023-10-01T09:43:31.238Z,99400.63
2023-10-01T09:46:01.732Z,99397.56
2023-10-01T09:48:39.270Z,99399.91
2023-10-01T09:51:15.612Z,99401.28
2023-10-01T09:54:01.823Z,99400.84
2023-10-01T09:56:45.241Z,99399.47
2023-10-01T09:59:12.853Z,99394.09
2023-10-01T10:01:41.148Z,99396.06
2023-10-01T10:04:12.171Z,99394.16
2023-10-01T10:06:41.058Z,99399.28
2023-10-01T10:09:27.109Z,99402.28
2023-10-01T10:11:55.891Z,99399.06
2023-10-01T10:14:29.565Z,99402.53
2023-10-01T10:17:19.323Z,99409.97
2023-10-01T10:19:59.602Z,99409.13
2023-10-01T10:22:33.523Z,99408.13
2023-10-01T10:25:20.430Z,99412.69
2023-10-01T10:27:49.194Z,99412.19
2023-10-01T10:30:19.749Z,99409.28
2023-10-01T10:33:31.947Z,99408.97
2023-10-01T10:36:18.086Z,99403.84
2023-10-01T10:38:53.316Z,99411.28
2023-10-01T10:41:26.905Z,99407.88
2023-10-01T10:44:09.979Z,99399.94
2023-10-01T10:47:01.126Z,99401.19
2023-10-01T10:49:50.204Z,99402.88
2023-10-01T10:52:33.916Z,99389.97
2023-10-01T10:55:17.202Z,99407.69
2023-10-01T10:57:51.491Z,99413.47
2023-10-01T11:00:26.376Z,99410.28
2023-10-01T11:02:58.682Z,99410.28
2023-10-01T11:05:33.978Z,99406.88
2023-10-01T11:08:03.881Z,99406.59
2023-10-01T11:10:49.420Z,99401.94
2023-10-01T11:13:23.262Z,99403.53
2023-10-01T11:15:50.775Z,99398.78
2023-10-01T11:18:19.033Z,99401.50
2023-10-01T11:20:46.736Z,99402.06
2023-10-01T11:23:17.687Z,99402.03
2023-10-01T11:25:49.382Z,99397.06
2023-10-01T11:28:17.058Z,99404.53
2023-10-01T11:30:44.942Z,99399.84
2023-10-01T11:33:14.684Z,99413.78
2023-10-01T11:35:44.466Z,99409.50
2023-10-01T11:38:18.027Z,99416.41
2023-10-01T11:41:04.022Z,99423.22
2023-10-01T11:43:40.715Z,99423.31
2023-10-01T11:46:26.334Z,99431.22
2023-10-01T11:49:08.947Z,99425.63
2023-10-01T11:51:56.103Z,99426.38
2023-10-01T11:54:26.613Z,99432.72
2023-10-01T11:57:06.992Z,99426.25
2023-10-01T11:59:38.739Z,99431.25
2023-10-01T12:02:23.267Z,99440.38
2023-10-01T12:05:00.773Z,99440.72
2023-10-01T12:07:41.238Z,99447.22
2023-10-01T12:10:26.184Z,99445.81
2023-10-01T12:12:54.527Z,99445.25
2023-10-01T12:15:38.909Z,99448.06
2023-10-01T12:18:09.960Z,99443.06
2023-10-01T12:20:51.466Z,99446.69
2023-10-01T12:23:21.047Z,99447.13
2023-10-01T12:25:54.954Z,99444.34
2023-10-01T12:28:26.919Z,99445.44
2023-10-01T12:31:02.435Z,99436.94
2023-10-01T12:33:40.284Z,99440.31
2023-10-01T12:36:33.254Z,99436.97
2023-10-01T12:39:11.811Z,99451.41
2023-10-01T12:41:55.957Z,99447.84
2023-10-01T12:44:29.447Z,99446.84
2023-10-01T12:47:02.056Z,99450.03
2023-10-01T12:49:30.163Z,99450.50
2023-10-01T12:51:58.163Z,99452.63
2023-10-01T12:54:29.821Z,99453.84
2023-10-01T12:57:11.531Z,99452.44
2023-10-01T12:59:43.388Z,99456.16
2023-10-01T13:02:29.341Z,99450.22
2023-10-01T13:05:17.075Z,99457.22
2023-10-01T13:07:47.266Z,99454.66
2023-10-01T13:10:15.657Z,99455.59
2023-10-01T13:12:57.934Z,99466.91
2023-10-01T13:15:32.002Z,99469.59
2023-10-01T13:18:05.555Z,99469.63
2023-10-01T13:20:35.480Z,99467.06
2023-10-01T13:23:08.697Z,99474.03
2023-10-01T13:25:38.365Z,99471.44
2023-10-01T13:28:06.329Z,99472.31
2023-10-01T13:30:54.838Z,99467.13
2023-10-01T13:33:24.643Z,99469.72
2023-10-01T13:35:54.131Z,99465.38
2023-10-01T13:38:33.722Z,99468.81
2023-10-01T13:41:07.915Z,99467.94
2023-10-01T13:43:57.749Z,99468.81
2023-10-01T13:46:44.008Z,99475.66
2023-10-01T13:49:30.168Z,99474.78
2023-10-01T13:52:16.093Z,99470.41
2023-10-01T13:55:02.008Z,99474.72
2023-10-01T13:57:49.670Z,99476.44
2023-10-01T14:00:35.502Z,99472.97
2023-10-01T14:03:21.327Z,99474.69
2023-10-01T14:06:07.293Z,99472.94
2023-10-01T14:08:46.842Z,99479.84
2023-10-01T14:11:17.245Z,99477.25
2023-10-01T14:13:48.936Z,99478.97
2023-10-01T14:16:24.545Z,99474.66
2023-10-01T14:18:55.940Z,99475.47
2023-10-01T14:21:26.261Z,99472.03
2023-10-01T14:23:57.898Z,99474.59
2023-10-01T14:26:34.910Z,99473.69
2023-10-01T14:29:07.389Z,99471.09
2023-10-01T14:32:04.230Z,99472.78
2023-10-01T14:34:31.691Z,99469.28
2023-10-01T14:37:01.904Z,99471.88
2023-10-01T14:39:32.832Z,99478.78
2023-10-01T14:42:00.688Z,99477.88
2023-10-01T14:44:28.133Z,99471.78
2023-10-01T14:46:58.037Z,99473.50
2023-10-01T14:49:25.806Z,99477.78
2023-10-01T14:51:58.148Z,99477.72
2023-10-01T14:54:27.052Z,99475.97
2023-10-01T14:56:57.970Z,99486.31
2023-10-01T14:59:34.185Z,99483.69
2023-10-01T15:02:04.071Z,99478.47
2023-10-01T15:04:35.155Z,99482.75
2023-10-01T15:07:04.468Z,99492.25
2023-10-01T15:09:35.520Z,99487.03
2023-10-01T15:12:07.994Z,99486.16
2023-10-01T15:14:50.849Z,99490.44
2023-10-01T15:17:25.765Z,99493.84
2023-10-01T15:19:55.752Z,99490.34
2023-10-01T15:22:23.970Z,99499.78
2023-10-01T15:24:51.544Z,99501.50
2023-10-01T15:27:28.328Z,99496.31
2023-10-01T15:29:57.762Z,99503.16
2023-10-01T15:32:31.765Z,99500.53
2023-10-01T15:35:00.131Z,99497.03
2023-10-01T15:37:32.484Z,99497.03
2023-10-01T15:40:07.357Z,99494.38
2023-10-01T15:42:37.170Z,99498.69
2023-10-01T15:45:18.238Z,99499.53
2023-10-01T15:47:49.330Z,99512.44
2023-10-01T15:50:19.438Z,99508.97
2023-10-01T15:52:48.407Z,99511.53
2023-10-01T15:55:36.363Z,99505.50
2023-10-01T15:58:04.381Z,99499.41
2023-10-01T16:00:33.765Z,99513.22
2023-10-01T16:03:10.294Z,99510.59
2023-10-01T16:05:42.895Z,99513.19
2023-10-01T16:08:23.991Z,99507.94
2023-10-01T16:11:05.124Z,99507.91
2023-10-01T16:13:35.390Z,99510.50
2023-10-01T16:16:08.375Z,99513.84
2023-10-01T16:18:37.106Z,99517.28
2023-10-01T16:21:06.398Z,99509.47
2023-10-01T16:23:38.336Z,99506.00
2023-10-01T16:26:09.505Z,99501.63
2023-10-01T16:28:44.236Z,99508.50
2023-10-01T16:31:24.365Z,99498.91
2023-10-01T16:34:02.170Z,99508.31
2023-10-01T16:36:46.958Z,99509.06
2023-10-01T16:39:19.280Z,99502.06
2023-10-01T16:41:50.782Z,99496.84
2023-10-01T16:44:18.637Z,99500.22
2023-10-01T16:47:08.523Z,99497.53
2023-10-01T16:49:42.133Z,99496.56
2023-10-01T16:52:12.494Z,99491.28
2023-10-01T16:54:49.296Z,99496.41
2023-10-01T16:57:30.196Z,99488.56
2023-10-01T17:00:00.865Z,99491.06
2023-10-01T17:02:36.150Z,99489.22
2023-10-01T17:05:09.370Z,99492.63
2023-10-01T17:07:40.949Z,99488.22
2023-10-01T17:10:15.278Z,99491.63
2023-10-01T17:12:45.399Z,99492.41
2023-10-01T17:15:33.731Z,99488.03
2023-10-01T17:18:07.500Z,99501.84
2023-10-01T17:20:43.731Z,99489.78
2023-10-01T17:23:20.426Z,99501.84
2023-10-01T17:26:03.406Z,99499.22
2023-10-01T17:28:45.158Z,99498.28
2023-10-01T17:31:21.347Z,99502.56
2023-10-01T17:33:56.159Z,99509.38
2023-10-01T17:36:27.067Z,99510.19
2023-10-01T17:39:02.991Z,99513.53
2023-10-01T17:41:37.443Z,99509.19
2023-10-01T17:44:18.215Z,99511.66
2023-10-01T17:46:48.335Z,99514.22
2023-10-01T17:49:19.046Z,99513.25
2023-10-01T17:51:56.204Z,99512.34
2023-10-01T17:54:25.988Z,99508.00
2023-10-01T17:57:02.085Z,99507.06
2023-10-01T17:59:35.547Z,99513.94
2023-10-01T18:02:08.690Z,99513.88
2023-10-01T18:04:48.518Z,99513.84
2023-10-01T18:07:20.522Z,99518.13
2023-10-01T18:09:53.662Z,99512.94
2023-10-01T18:12:31.263Z,99516.41
2023-10-01T18:14:59.500Z,99516.38
2023-10-01T18:17:27.370Z,99506.84
2023-10-01T18:19:56.089Z,99505.09
2023-10-01T18:22:29.894Z,99505.09
2023-10-01T18:24:59.170Z,99507.69
2023-10-01T18:27:27.516Z,99512.81
2023-10-01T18:29:58.875Z,99515.38
2023-10-01T18:32:26.622Z,99517.13
2023-10-01T18:34:57.511Z,99515.38
2023-10-01T18:37:28.865Z,99515.28
2023-10-01T18:39:56.508Z,99521.28
2023-10-01T18:42:24.092Z,99510.91
2023-10-01T18:44:51.725Z,99512.56
2023-10-01T18:47:19.830Z,99512.53
2023-10-01T18:49:47.688Z,99520.25
2023-10-01T18:52:22.131Z,99514.22
2023-10-01T18:54:49.857Z,99514.19
2023-10-01T18:57:18.067Z,99519.31
2023-10-01T18:59:45.563Z,99522.72
2023-10-01T19:02:14.182Z,99521.00
2023-10-01T19:04:41.859Z,99519.28
2023-10-01T19:07:12.395Z,99521.84
2023-10-01T19:09:39.863Z,99513.19
2023-10-01T19:12:07.267Z,99525.19
2023-10-01T19:14:34.666Z,99523.50
2023-10-01T19:17:02.154Z,99519.16
2023-10-01T19:19:33.677Z,99513.09
2023-10-01T19:22:02.107Z,99520.84
2023-10-01T19:24:35.705Z,99509.63
2023-10-01T19:27:13.869Z,99513.06
2023-10-01T19:29:41.896Z,99508.66
2023-10-01T19:32:14.215Z,99511.25
2023-10-01T19:34:45.383Z,99512.97
2023-10-01T19:37:16.880Z,99512.97
2023-10-01T19:39:44.703Z,99506.97
2023-10-01T19:42:16.838Z,99502.66
2023-10-01T19:44:44.566Z,99513.06
2023-10-01T19:47:13.556Z,99508.00
2023-10-01T19:49:41.775Z,99508.06
2023-10-01T19:52:17.999Z,99508.03
2023-10-01T19:54:45.461Z,99509.69
2023-10-01T19:57:18.545Z,99507.09
2023-10-01T19:59:46.026Z,99508.78
2023-10-01T20:02:23.631Z,99504.47
2023-10-01T20:04:51.327Z,99507.81
2023-10-01T20:07:19.946Z,99497.44
2023-10-01T20:09:48.052Z,99501.69
2023-10-01T20:12:18.452Z,99501.59
2023-10-01T20:14:52.197Z,99498.97
2023-10-01T20:17:20.523Z,99504.91
2023-10-01T20:19:48.193Z,99499.72
2023-10-01T20:22:21.957Z,99505.72
2023-10-01T20:24:51.062Z,99500.50
2023-10-01T20:27:18.710Z,99495.31
2023-10-01T20:29:46.451Z,99502.16
2023-10-01T20:32:14.696Z,99502.16
2023-10-01T20:34:45.476Z,99492.66
2023-10-01T20:37:12.885Z,99497.81
2023-10-01T20:39:44.029Z,99499.41
2023-10-01T20:42:19.309Z,99495.06
2023-10-01T20:44:47.522Z,99494.19
2023-10-01T20:47:19.289Z,99498.44
2023-10-01T20:49:49.491Z,99492.41
2023-10-01T20:52:18.359Z,99487.19
2023-10-01T20:54:46.887Z,99486.31
2023-10-01T20:57:14.575Z,99485.41
2023-10-01T20:59:43.854Z,99485.34
2023-10-01T21:02:11.890Z,99490.47
2023-10-01T21:04:42.888Z,99492.13
2023-10-01T21:07:29.979Z,99492.97
2023-10-01T21:09:59.016Z,99489.44
2023-10-01T21:12:32.299Z,99493.72
2023-10-01T21:15:00.389Z,99490.25
2023-10-01T21:17:30.816Z,99486.78
2023-10-01T21:20:19.533Z,99489.34
2023-10-01T21:22:47.770Z,99491.00
2023-10-01T21:25:25.771Z,99489.25
2023-10-01T21:27:54.605Z,99487.50
2023-10-01T21:30:23.808Z,99484.88
2023-10-01T21:32:52.016Z,99483.94
2023-10-01T21:35:22.046Z,99490.78
2023-10-01T21:37:50.354Z,99484.75
2023-10-01T21:40:21.685Z,99484.72
2023-10-01T21:42:51.759Z,99485.59
2023-10-01T21:45:27.984Z,99485.56
2023-10-01T21:48:03.196Z,99483.78
2023-10-01T21:50:31.816Z,99478.59
2023-10-01T21:53:06.871Z,99479.44
2023-10-01T21:55:34.312Z,99485.41
2023-10-01T21:58:03.177Z,99484.50
2023-10-01T22:01:02.423Z,99485.31
2023-10-01T22:03:33.197Z,99480.97
2023-10-01T22:06:01.245Z,99482.66
2023-10-01T22:08:33.732Z,99484.34
2023-10-01T22:11:01.533Z,99486.00
2023-10-01T22:13:30.475Z,99486.84
2023-10-01T22:16:08.761Z,99483.38
2023-10-01T22:18:36.264Z,99486.81
2023-10-01T22:21:09.185Z,99484.19
2023-10-01T22:23:36.698Z,99483.34
2023-10-01T22:26:04.774Z,99485.00
2023-10-01T22:28:36.336Z,99485.88
2023-10-01T22:31:04.695Z,99480.72
2023-10-01T22:33:37.289Z,99487.59
2023-10-01T22:36:04.944Z,99481.47
2023-10-01T22:38:32.261Z,99489.16
2023-10-01T22:41:01.101Z,99477.13
2023-10-01T22:43:31.250Z,99486.56
2023-10-01T22:45:59.111Z,99484.75
2023-10-01T22:48:29.963Z,99490.72
2023-10-01T22:51:03.772Z,99484.69
2023-10-01T22:53:31.221Z,99481.22
2023-10-01T22:56:06.316Z,99481.19
2023-10-01T22:58:35.108Z,99486.28
2023-10-01T23:01:04.634Z,99476.78
2023-10-01T23:03:32.021Z,99480.16
2023-10-01T23:06:04.445Z,99483.59
2023-10-01T23:08:35.356Z,99487.81
2023-10-01T23:11:04.392Z,99480.88
2023-10-01T23:13:32.817Z,99486.00
2023-10-01T23:16:03.607Z,99485.06
2023-10-01T23:18:37.381Z,99481.59
2023-10-01T23:21:09.519Z,99490.19
2023-10-01T23:23:43.894Z,99484.13
2023-10-01T23:26:28.253Z,99491.00
2023-10-01T23:29:26.136Z,99485.81
2023-10-01T23:32:13.443Z,99484.06
2023-10-01T23:34:45.720Z,99485.78
2023-10-01T23:37:14.364Z,99476.28
2023-10-01T23:39:41.708Z,99477.16
2023-10-01T23:42:09.294Z,99473.69
2023-10-01T23:44:57.039Z,99475.38
2023-10-01T23:47:31.841Z,99477.94
2023-10-01T23:50:19.951Z,99470.22
2023-10-01T23:52:49.903Z,99474.50
2023-10-01T23:55:34.052Z,99463.34
2023-10-01T23:58:15.053Z,99459.03
